createdAt,value
2023-01-26T00:02:14.757Z,27.40
2023-01-26T00:07:17.975Z,27.48
2023-01-26T00:12:22.579Z,26.73
2023-01-26T00:17:28.790Z,27.63
2023-01-26T00:22:32.232Z,26.42
2023-01-26T00:27:36.935Z,23.48
2023-01-26T00:32:40.186Z,24.40
2023-01-26T00:37:43.786Z,27.73
2023-01-26T00:42:48.553Z,26.65
2023-01-26T00:47:51.821Z,26.23
2023-01-26T00:52:55.139Z,29.55
2023-01-26T00:57:59.856Z,28.52
2023-01-26T01:03:03.451Z,24.57
2023-01-26T01:08:07.056Z,24.52
2023-01-26T01:13:11.732Z,24.92
2023-01-26T01:18:15.035Z,24.33
2023-01-26T01:23:18.358Z,23.45
2023-01-26T01:28:22.975Z,24.08
2023-01-26T01:33:26.543Z,24.73
2023-01-26T01:38:29.859Z,25.60
2023-01-26T01:43:35.054Z,26.13
2023-01-26T01:48:45.839Z,25.95
2023-01-26T01:53:52.842Z,24.30
2023-01-26T01:59:01.136Z,24.23
2023-01-26T02:04:07.291Z,27.52
2023-01-26T02:09:32.502Z,26.88
2023-01-26T02:14:37.097Z,24.73
2023-01-26T02:19:50.536Z,23.53
2023-01-26T02:24:58.227Z,23.90
2023-01-26T02:30:04.275Z,29.08
2023-01-26T02:35:07.952Z,26.20
2023-01-26T02:40:18.723Z,25.35
2023-01-26T02:45:24.354Z,25.48
2023-01-26T02:50:27.619Z,27.08
2023-01-26T02:55:30.830Z,27.58
2023-01-26T03:00:37.646Z,26.58
2023-01-26T03:05:41.010Z,26.42
2023-01-26T03:10:44.607Z,25.90
2023-01-26T03:15:52.958Z,27.30
2023-01-26T03:21:13.855Z,28.50
2023-01-26T03:26:34.375Z,27.27
2023-01-26T03:31:39.123Z,23.00
2023-01-26T03:36:42.386Z,25.43
2023-01-26T03:42:02.864Z,23.27
2023-01-26T03:47:24.562Z,27.23
2023-01-26T03:52:45.205Z,22.65
2023-01-26T03:57:49.692Z,22.00
2023-01-26T04:03:11.688Z,22.40
2023-01-26T04:08:30.631Z,22.30
2023-01-26T04:13:51.425Z,23.02
2023-01-26T04:19:14.084Z,23.67
2023-01-26T04:24:17.577Z,23.92
2023-01-26T04:29:21.420Z,23.48
2023-01-26T04:34:27.061Z,24.53
2023-01-26T04:39:30.318Z,24.83
2023-01-26T04:44:33.552Z,24.00
2023-01-26T04:49:38.185Z,24.98
2023-01-26T04:54:41.776Z,25.10
2023-01-26T04:59:44.960Z,26.05
2023-01-26T05:04:49.566Z,25.27
2023-01-26T05:09:52.798Z,23.97
2023-01-26T05:14:56.015Z,23.20
2023-01-26T05:20:00.680Z,23.02
2023-01-26T05:25:03.898Z,24.23
2023-01-26T05:30:08.243Z,24.67
2023-01-26T05:35:13.073Z,27.70
2023-01-26T05:40:16.449Z,25.27
2023-01-26T05:45:19.921Z,23.88
2023-01-26T05:50:24.459Z,22.40
2023-01-26T05:55:27.735Z,25.90
2023-01-26T06:00:31.003Z,27.33
2023-01-26T06:05:35.522Z,26.38
2023-01-26T06:10:38.664Z,27.60
2023-01-26T06:15:41.801Z,26.73
2023-01-26T06:20:46.466Z,25.10
2023-01-26T06:25:49.614Z,26.03
2023-01-26T06:30:53.616Z,25.35
2023-01-26T06:35:58.213Z,26.83
2023-01-26T06:41:03.254Z,25.33
2023-01-26T06:46:07.635Z,24.33
2023-01-26T06:51:45.299Z,26.40
2023-01-26T06:56:48.488Z,24.45
2023-01-26T07:01:51.660Z,25.05
2023-01-26T07:06:56.234Z,21.30
2023-01-26T07:11:59.336Z,24.27
2023-01-26T07:17:02.889Z,22.88
2023-01-26T07:22:07.455Z,24.58
2023-01-26T07:27:10.593Z,24.13
2023-01-26T07:32:13.914Z,23.50
2023-01-26T07:37:18.468Z,23.42
2023-01-26T07:42:21.829Z,23.30
2023-01-26T07:47:25.125Z,23.52
2023-01-26T07:52:29.797Z,26.20
2023-01-26T07:57:34.155Z,22.47
2023-01-26T08:02:37.415Z,22.40
2023-01-26T08:07:42.014Z,22.15
2023-01-26T08:12:45.221Z,22.97
2023-01-26T08:17:48.443Z,23.88
2023-01-26T08:22:53.119Z,21.33
2023-01-26T08:27:56.778Z,22.70
2023-01-26T08:33:00.091Z,21.52
2023-01-26T08:38:05.937Z,21.33
2023-01-26T08:43:09.151Z,20.63
2023-01-26T08:48:12.462Z,22.67
2023-01-26T08:53:17.462Z,20.48
2023-01-26T08:58:21.803Z,19.27
2023-01-26T09:03:25.199Z,20.10
2023-01-26T09:08:29.821Z,25.20
2023-01-26T09:13:33.053Z,21.73
2023-01-26T09:18:36.766Z,20.65
2023-01-26T09:23:41.363Z,19.33
2023-01-26T09:28:44.571Z,22.47
2023-01-26T09:33:49.237Z,23.50
2023-01-26T09:38:54.332Z,28.93
2023-01-26T09:44:01.440Z,27.30
2023-01-26T09:49:08.343Z,42.63
2023-01-26T09:54:24.999Z,31.38
2023-01-26T09:59:35.296Z,66.68
2023-01-26T10:04:42.055Z,46.40
2023-01-26T10:09:50.283Z,31.95
2023-01-26T10:14:57.843Z,28.80
2023-01-26T10:20:07.705Z,31.73
2023-01-26T10:25:19.748Z,40.05
2023-01-26T10:30:23.454Z,39.38
2023-01-26T10:35:27.201Z,29.00
2023-01-26T10:40:43.475Z,31.27
2023-01-26T10:45:48.277Z,46.70
2023-01-26T10:50:52.501Z,31.77
2023-01-26T10:56:02.850Z,25.90
2023-01-26T11:01:12.589Z,39.42
2023-01-26T11:06:17.470Z,41.28
2023-01-26T11:11:27.650Z,38.13
2023-01-26T11:16:30.997Z,32.58
2023-01-26T11:21:40.473Z,25.15
2023-01-26T11:27:03.403Z,26.38
2023-01-26T11:32:17.817Z,20.50
2023-01-26T11:37:38.499Z,26.35
2023-01-26T11:42:51.250Z,27.83
2023-01-26T11:48:07.880Z,30.88
2023-01-26T11:53:24.232Z,41.92
2023-01-26T11:58:36.843Z,40.63
2023-01-26T12:03:46.709Z,36.90
2023-01-26T12:08:54.913Z,35.03
2023-01-26T12:14:08.351Z,42.78
2023-01-26T12:19:18.249Z,37.78
2023-01-26T12:25:01.130Z,39.85
2023-01-26T12:30:03.005Z,39.20
2023-01-26T12:35:06.613Z,37.60
2023-01-26T12:40:20.118Z,40.17
2023-01-26T12:45:30.120Z,41.88
2023-01-26T12:50:40.125Z,38.25
2023-01-26T12:55:47.534Z,37.30
2023-01-26T13:01:03.789Z,39.28
2023-01-26T13:06:21.160Z,43.00
2023-01-26T13:11:45.307Z,49.00
2023-01-26T13:16:49.870Z,49.88
2023-01-26T13:21:53.013Z,52.13
2023-01-26T13:26:58.089Z,49.85
2023-01-26T13:32:24.356Z,45.65
2023-01-26T13:37:35.607Z,49.92
2023-01-26T13:42:56.519Z,47.05
2023-01-26T13:48:03.421Z,45.72
2023-01-26T13:53:33.892Z,52.63
2023-01-26T13:58:37.035Z,50.13
2023-01-26T14:03:41.751Z,57.47
2023-01-26T14:08:50.909Z,50.35
2023-01-26T14:13:57.114Z,52.58
2023-01-26T14:19:16.385Z,31.45
2023-01-26T14:24:21.195Z,43.33
2023-01-26T14:29:28.895Z,39.38
2023-01-26T14:34:33.451Z,38.70
2023-01-26T14:39:36.661Z,38.75
2023-01-26T14:44:39.899Z,37.25
2023-01-26T14:49:49.408Z,37.85
2023-01-26T14:54:54.580Z,34.75
2023-01-26T15:00:00.850Z,37.00
2023-01-26T15:05:13.374Z,33.47
2023-01-26T15:10:35.396Z,27.08
2023-01-26T15:15:40.662Z,25.65
2023-01-26T15:20:50.825Z,26.70
2023-01-26T15:25:54.127Z,28.38
2023-01-26T15:30:58.266Z,27.02
2023-01-26T15:36:02.854Z,29.10
2023-01-26T15:41:10.114Z,26.65
2023-01-26T15:46:13.232Z,21.98
2023-01-26T15:51:17.816Z,20.15
2023-01-26T15:56:20.979Z,26.52
2023-01-26T16:01:24.739Z,22.45
2023-01-26T16:06:31.130Z,22.88
2023-01-26T16:11:38.472Z,24.35
2023-01-26T16:16:41.872Z,19.25
2023-01-26T16:21:46.627Z,18.63
2023-01-26T16:26:49.813Z,22.13
2023-01-26T16:31:52.981Z,19.45
2023-01-26T16:36:57.541Z,22.08
2023-01-26T16:42:00.645Z,21.13
2023-01-26T16:47:05.938Z,26.02
2023-01-26T16:52:11.335Z,25.65
2023-01-26T16:57:14.454Z,27.33
2023-01-26T17:02:26.128Z,31.20
2023-01-26T17:07:30.758Z,28.58
2023-01-26T17:12:34.200Z,31.85
2023-01-26T17:17:37.343Z,34.45
2023-01-26T17:22:41.927Z,34.88
2023-01-26T17:27:45.236Z,36.38
2023-01-26T17:32:48.352Z,30.08
2023-01-26T17:37:53.401Z,30.75
2023-01-26T17:42:56.542Z,31.05
2023-01-26T17:47:59.697Z,33.72
2023-01-26T17:53:04.384Z,28.20
2023-01-26T17:58:10.750Z,31.10
2023-01-26T18:03:13.917Z,30.70
2023-01-26T18:08:18.698Z,43.25
2023-01-26T18:13:21.916Z,31.20
2023-01-26T18:18:26.030Z,32.00
2023-01-26T18:23:30.603Z,34.17
2023-01-26T18:28:33.812Z,36.47
2023-01-26T18:33:37.532Z,39.22
2023-01-26T18:38:42.979Z,45.55
2023-01-26T18:43:48.493Z,36.88
2023-01-26T18:48:53.969Z,39.25
2023-01-26T18:53:58.786Z,49.10
2023-01-26T18:59:02.085Z,50.70
2023-01-26T19:04:07.299Z,47.05
2023-01-26T19:09:11.884Z,44.97
2023-01-26T19:14:15.407Z,54.10
2023-01-26T19:19:18.533Z,60.45
2023-01-26T19:24:23.320Z,62.42
2023-01-26T19:29:26.612Z,54.15
2023-01-26T19:34:31.314Z,56.38
2023-01-26T19:39:36.558Z,48.67
2023-01-26T19:49:42.531Z,55.35
2023-01-26T19:54:47.053Z,54.17
2023-01-26T19:59:50.305Z,54.43
2023-01-26T20:04:53.391Z,52.72
2023-01-26T20:09:57.947Z,57.97
2023-01-26T20:15:01.098Z,57.63
2023-01-26T20:20:04.553Z,58.58
2023-01-26T20:25:12.448Z,62.05
2023-01-26T20:30:16.814Z,62.53
2023-01-26T20:35:19.955Z,62.92
2023-01-26T20:40:24.607Z,55.30
2023-01-26T20:45:27.786Z,54.77
2023-01-26T20:50:36.190Z,59.65
2023-01-26T20:55:40.708Z,56.20
2023-01-26T21:00:43.869Z,56.73
2023-01-26T21:05:46.999Z,52.38
2023-01-26T21:10:51.676Z,55.17
2023-01-26T21:15:56.271Z,50.07
2023-01-26T21:21:01.255Z,46.97
2023-01-26T21:26:07.487Z,47.70
2023-01-26T21:31:12.502Z,52.30
2023-01-26T21:36:19.005Z,50.00
2023-01-26T21:41:43.671Z,45.53
2023-01-26T21:46:48.357Z,48.13
2023-01-26T21:52:09.239Z,48.57
2023-01-26T21:57:33.599Z,47.72
2023-01-26T22:02:37.045Z,43.95
2023-01-26T22:07:40.355Z,48.95
2023-01-26T22:12:44.985Z,45.30
2023-01-26T22:17:48.224Z,45.93
2023-01-26T22:22:51.499Z,47.75
2023-01-26T22:27:56.063Z,46.97
2023-01-26T22:32:59.279Z,49.53
2023-01-26T22:38:02.587Z,48.50
2023-01-26T22:43:08.919Z,53.08
2023-01-26T22:48:12.161Z,48.03
2023-01-26T22:53:15.475Z,53.38
2023-01-26T22:58:20.417Z,50.38
2023-01-26T23:03:25.755Z,55.78
2023-01-26T23:13:34.278Z,47.10
2023-01-26T23:18:38.346Z,42.78
2023-01-26T23:23:42.284Z,40.67
2023-01-26T23:28:46.922Z,44.50
2023-01-26T23:33:50.248Z,43.33
2023-01-26T23:38:54.415Z,42.72
2023-01-26T23:43:59.044Z,38.55
2023-01-26T23:49:02.278Z,45.60
2023-01-26T23:54:05.609Z,43.92
2023-01-26T23:59:10.293Z,46.55
